createdAt,value
2022-09-07T07:48:48.124Z,26.46
2022-09-07T07:52:49.914Z,26.55
2022-09-07T07:54:38.435Z,26.63
2022-09-07T07:57:24.109Z,26.55
2022-09-07T08:00:09.576Z,26.69
2022-09-07T08:02:55.522Z,26.65
2022-09-07T08:05:40.450Z,26.63
2022-09-07T08:08:25.759Z,26.69
2022-09-07T08:11:17.021Z,26.80
2022-09-07T08:14:06.119Z,26.91
2022-09-07T08:16:51.453Z,26.96
2022-09-07T08:19:36.962Z,26.97
2022-09-07T08:22:22.006Z,27.01
2022-09-07T08:25:07.660Z,26.98
2022-09-07T08:27:53.332Z,26.96
2022-09-07T08:30:39.290Z,27.08
2022-09-07T08:33:24.967Z,27.14
2022-09-07T08:36:18.063Z,27.21
2022-09-07T08:39:04.236Z,27.28
2022-09-07T08:41:55.691Z,27.31
2022-09-07T08:44:40.951Z,27.27
2022-09-07T08:47:53.060Z,27.23
2022-09-07T08:50:43.861Z,27.22
2022-09-07T08:53:29.654Z,27.21
2022-09-07T08:56:22.890Z,27.16
2022-09-07T08:59:34.855Z,27.17
2022-09-07T09:02:28.377Z,27.30
2022-09-07T09:05:37.024Z,27.29
2022-09-07T09:08:25.497Z,27.27
2022-09-07T09:11:15.657Z,27.23
2022-09-07T09:14:01.101Z,27.26
2022-09-07T09:16:49.708Z,27.31
2022-09-07T09:19:53.661Z,27.37
2022-09-07T09:22:39.389Z,27.31
2022-09-07T09:25:32.263Z,27.26
2022-09-07T09:28:17.602Z,27.33
2022-09-07T09:31:03.688Z,27.43
2022-09-07T09:34:07.498Z,27.40
2022-09-07T09:36:54.053Z,27.39
2022-09-07T09:39:40.168Z,27.43
2022-09-07T09:42:27.173Z,27.51
2022-09-07T09:45:16.890Z,27.53
2022-09-07T09:48:03.253Z,27.46
2022-09-07T09:53:59.551Z,27.55
2022-09-07T09:56:46.051Z,27.63
2022-09-07T10:05:47.412Z,27.61
2022-09-07T10:08:34.356Z,27.63
2022-09-07T10:14:45.632Z,27.79
2022-09-07T10:17:41.742Z,27.66
2022-09-07T10:20:38.035Z,27.51
2022-09-07T10:23:24.008Z,27.51
2022-09-07T10:26:20.691Z,27.63
2022-09-07T10:29:15.772Z,27.60
2022-09-07T10:32:07.809Z,27.65
2022-09-07T10:34:52.982Z,27.66
2022-09-07T10:37:44.583Z,27.64
2022-09-07T10:40:40.200Z,27.71
2022-09-07T10:43:28.646Z,27.71
2022-09-07T10:53:39.063Z,27.63
2022-09-07T10:56:22.499Z,27.66
2022-09-07T10:59:23.671Z,27.68
2022-09-07T11:02:28.053Z,27.69
2022-09-07T11:05:35.166Z,27.75
2022-09-07T11:08:23.693Z,27.77
2022-09-07T11:11:12.138Z,27.72
2022-09-07T11:14:13.141Z,27.74
2022-09-07T11:17:01.685Z,27.80
2022-09-07T11:19:47.113Z,27.82
2022-09-07T11:22:36.404Z,27.90
2022-09-07T11:25:32.267Z,27.93
2022-09-07T11:28:20.436Z,27.97
2022-09-07T11:31:13.706Z,27.94
2022-09-07T11:37:11.206Z,27.94
2022-09-07T11:40:11.992Z,28.00
2022-09-07T11:43:02.956Z,28.14
2022-09-07T11:45:57.030Z,28.09
2022-09-07T11:48:44.932Z,28.07
2022-09-07T11:51:37.186Z,28.18
2022-09-07T11:54:35.457Z,28.13
2022-09-07T11:57:41.031Z,28.13
2022-09-07T12:00:44.772Z,28.15
2022-09-07T12:03:33.459Z,28.24
2022-09-07T12:06:35.518Z,28.14
2022-09-07T12:09:39.887Z,28.25
2022-09-07T12:12:48.574Z,28.23
2022-09-07T12:15:36.984Z,28.29
2022-09-07T12:18:26.416Z,28.35
2022-09-07T12:21:30.440Z,28.39
2022-09-07T12:24:34.887Z,28.36
2022-09-07T12:27:20.271Z,28.37
2022-09-07T12:30:05.624Z,28.36
2022-09-07T12:32:54.285Z,28.42
2022-09-07T12:35:40.770Z,28.45
2022-09-07T12:38:32.208Z,28.50
2022-09-07T12:41:24.961Z,28.44
2022-09-07T12:44:15.276Z,28.37
2022-09-07T12:47:02.194Z,28.36
2022-09-07T12:50:06.665Z,28.37
2022-09-07T12:53:08.095Z,28.30
2022-09-07T12:56:17.071Z,28.31
2022-09-07T12:59:17.321Z,28.42
2022-09-07T13:02:05.217Z,28.35
2022-09-07T13:05:02.473Z,28.31
2022-09-07T13:08:06.952Z,28.31
2022-09-07T13:10:53.913Z,28.39
2022-09-07T13:19:51.072Z,27.09
2022-09-07T13:22:36.954Z,26.87
2022-09-07T13:25:23.789Z,26.81
2022-09-07T13:28:21.593Z,26.70
2022-09-07T13:31:07.234Z,26.55
2022-09-07T13:33:53.293Z,26.51
2022-09-07T13:36:47.995Z,26.56
2022-09-07T13:39:42.171Z,26.53
2022-09-07T13:42:27.339Z,26.51
2022-09-07T13:45:31.391Z,26.46
2022-09-07T13:48:35.647Z,26.42
2022-09-07T13:51:27.334Z,26.40
2022-09-07T13:54:19.449Z,26.37
2022-09-07T13:57:37.061Z,26.33
2022-09-07T14:00:22.798Z,26.30
2022-09-07T14:03:14.661Z,26.32
2022-09-07T14:06:18.837Z,26.29
2022-09-07T14:09:04.458Z,26.27
2022-09-07T14:11:51.550Z,26.25
2022-09-07T14:14:36.567Z,26.27
2022-09-07T14:17:22.011Z,26.33
2022-09-07T14:20:13.404Z,26.33
2022-09-07T14:22:59.442Z,26.32
2022-09-07T14:28:51.863Z,26.30
2022-09-07T14:31:37.519Z,26.28
2022-09-07T14:34:24.924Z,26.31
2022-09-07T14:37:13.389Z,26.35
2022-09-07T14:39:59.396Z,26.34
2022-09-07T14:42:45.278Z,26.29
2022-09-07T14:45:32.721Z,26.32
2022-09-07T14:48:29.243Z,26.26
2022-09-07T14:51:32.663Z,26.27
2022-09-07T14:54:29.720Z,26.28
2022-09-07T14:57:15.275Z,26.27
2022-09-07T15:00:21.289Z,26.24
2022-09-07T15:03:25.720Z,26.28
2022-09-07T15:07:00.965Z,26.26
2022-09-07T15:09:36.156Z,26.24
2022-09-07T15:12:37.919Z,26.22
2022-09-07T15:15:32.157Z,26.21
2022-09-07T15:18:36.473Z,26.23
2022-09-07T15:21:26.470Z,26.22
2022-09-07T15:24:12.240Z,26.22
2022-09-07T15:27:05.232Z,26.19
2022-09-07T15:29:50.587Z,26.20
2022-09-07T15:32:36.033Z,26.19
2022-09-07T15:35:21.074Z,26.23
2022-09-07T15:38:59.520Z,26.22
2022-09-07T15:41:23.642Z,26.20
2022-09-07T15:44:09.656Z,26.18
2022-09-07T15:50:00.350Z,26.11
2022-09-07T15:52:46.274Z,26.12
2022-09-07T15:55:31.883Z,26.14
2022-09-07T15:58:17.082Z,26.12
2022-09-07T16:04:12.273Z,26.10
2022-09-07T16:06:58.005Z,26.11
2022-09-07T16:09:43.686Z,26.06
2022-09-07T16:15:34.841Z,26.09
2022-09-07T16:18:20.499Z,26.09
2022-09-07T16:21:11.752Z,26.06
2022-09-07T16:23:57.614Z,26.05
2022-09-07T16:26:42.879Z,26.34
2022-09-07T16:29:28.156Z,26.61
2022-09-07T16:35:18.977Z,26.91
2022-09-07T16:41:29.454Z,27.03
2022-09-07T16:44:14.608Z,27.20
2022-09-07T16:46:59.875Z,27.17
2022-09-07T16:49:45.528Z,27.17
2022-09-07T16:52:30.742Z,27.21
2022-09-07T16:55:16.710Z,27.20
2022-09-07T17:01:08.576Z,27.27
2022-09-07T17:03:53.639Z,27.27
2022-09-07T17:06:39.717Z,27.28
2022-09-07T17:09:27.067Z,27.29
2022-09-07T17:12:12.960Z,27.32
2022-09-07T17:14:58.871Z,27.34
2022-09-07T17:17:44.058Z,27.35
2022-09-07T17:20:29.334Z,27.37
2022-09-07T17:23:16.241Z,27.40
2022-09-07T17:26:06.433Z,27.42
2022-09-07T17:28:52.561Z,27.44
2022-09-07T17:34:43.381Z,27.56
2022-09-07T17:37:28.523Z,27.66
2022-09-07T17:40:13.824Z,27.71
2022-09-07T17:46:05.586Z,27.56
2022-09-07T17:48:52.544Z,27.56
2022-09-07T17:51:38.208Z,27.59
2022-09-07T17:54:24.921Z,27.60
2022-09-07T17:57:10.683Z,27.57
2022-09-07T18:00:12.396Z,27.60
2022-09-07T18:02:58.901Z,27.59
2022-09-07T18:05:44.892Z,27.61
2022-09-07T18:08:30.333Z,27.64
2022-09-07T18:14:22.805Z,27.70
2022-09-07T18:17:07.914Z,27.70
2022-09-07T18:19:53.155Z,27.73
2022-09-07T18:22:38.357Z,27.79
2022-09-07T18:25:23.613Z,27.82
2022-09-07T18:31:14.558Z,27.87
2022-09-07T18:34:01.739Z,27.89
2022-09-07T18:36:47.090Z,27.93
2022-09-07T18:39:33.633Z,27.94
2022-09-07T18:42:19.044Z,27.96
2022-09-07T18:48:13.324Z,27.96
2022-09-07T18:51:00.359Z,27.95
2022-09-07T18:53:46.111Z,28.00
2022-09-07T18:56:31.493Z,28.01
2022-09-07T18:59:16.813Z,28.04
2022-09-07T19:02:05.030Z,28.07
2022-09-07T19:07:56.802Z,28.12
2022-09-07T19:10:42.097Z,28.12
2022-09-07T19:13:27.575Z,28.10
2022-09-07T19:16:16.955Z,28.11
2022-09-07T19:19:03.251Z,28.13
2022-09-07T19:21:48.864Z,28.14
2022-09-07T19:24:34.528Z,28.15
2022-09-07T19:27:20.140Z,28.15
2022-09-07T19:30:05.673Z,28.16
2022-09-07T19:32:50.935Z,28.18
2022-09-07T19:35:36.532Z,-142.07
2022-09-07T19:38:21.964Z,-142.07
2022-09-07T19:41:08.401Z,-142.07
2022-09-07T19:43:54.035Z,-142.07
2022-09-07T19:46:41.220Z,-142.07
2022-09-07T19:49:27.096Z,-142.07
2022-09-07T19:52:12.664Z,-142.07
2022-09-07T19:55:00.390Z,-142.07
2022-09-07T19:57:46.978Z,-142.07
2022-09-07T20:00:32.581Z,-142.07
2022-09-07T20:03:17.701Z,-142.07
2022-09-07T20:06:10.150Z,-142.07
2022-09-07T20:08:55.910Z,-142.07
2022-09-07T20:11:46.138Z,-142.07
2022-09-07T20:14:32.016Z,-142.07
2022-09-07T20:17:17.344Z,-142.07
2022-09-07T20:20:02.864Z,-142.07
2022-09-07T20:22:48.846Z,-142.07
2022-09-07T20:25:34.793Z,-142.07
2022-09-07T20:28:20.383Z,-142.07
2022-09-07T20:31:15.622Z,-142.07
2022-09-07T20:34:00.833Z,-142.07
2022-09-07T20:36:46.180Z,-142.07
2022-09-07T20:39:34.664Z,-142.07
2022-09-07T20:42:23.861Z,-142.07
2022-09-07T20:45:09.460Z,-142.07
2022-09-07T20:47:54.850Z,-142.07
2022-09-07T20:50:40.379Z,-142.07
2022-09-07T20:53:26.091Z,-142.07
2022-09-07T20:56:15.283Z,-142.07
2022-09-07T20:59:02.266Z,-142.07
2022-09-07T21:01:47.848Z,-142.07
2022-09-07T21:04:32.890Z,-142.07
2022-09-07T21:07:18.145Z,-142.07
2022-09-07T21:10:06.779Z,-142.07
2022-09-07T21:12:53.409Z,-142.07
2022-09-07T21:15:39.625Z,-142.07
2022-09-07T21:18:25.473Z,-142.07
2022-09-07T21:21:20.427Z,-142.07
2022-09-07T21:24:06.609Z,-142.07
2022-09-07T21:26:51.996Z,-142.07
2022-09-07T21:29:37.238Z,-142.07
2022-09-07T21:32:22.594Z,-142.07
2022-09-07T21:35:10.242Z,-142.07
2022-09-07T21:37:55.351Z,-142.07
2022-09-07T21:40:40.979Z,-142.07
2022-09-07T21:43:26.217Z,-142.07
2022-09-07T21:46:16.459Z,-142.07
2022-09-07T21:49:01.614Z,-142.07
2022-09-07T21:51:46.976Z,-142.07
2022-09-07T21:54:32.010Z,-142.07
2022-09-07T21:57:17.466Z,-142.07
2022-09-07T22:00:04.269Z,-142.07
2022-09-07T22:02:51.182Z,-142.07
2022-09-07T22:05:37.724Z,-142.07
2022-09-07T22:08:23.211Z,-142.07
2022-09-07T22:11:10.245Z,-142.07
2022-09-07T22:13:57.222Z,-142.07
2022-09-07T22:16:42.665Z,-142.07
2022-09-07T22:19:27.826Z,-142.07
2022-09-07T22:22:12.968Z,-142.07
2022-09-07T22:24:58.151Z,-142.07
2022-09-07T22:27:43.400Z,-142.07
2022-09-07T22:30:28.424Z,-142.07
2022-09-07T22:33:13.618Z,-142.07
2022-09-07T22:36:11.310Z,-142.07
2022-09-07T22:38:58.765Z,-142.07
2022-09-07T22:41:44.648Z,-142.07
2022-09-07T22:44:30.246Z,-142.07
2022-09-07T22:47:15.868Z,-142.07
2022-09-07T22:50:00.958Z,-142.07
2022-09-07T22:52:46.372Z,-142.07
2022-09-07T22:55:31.649Z,-142.07
2022-09-07T22:58:16.872Z,-142.07
2022-09-07T23:01:02.309Z,-142.07
2022-09-07T23:03:47.968Z,-142.07
2022-09-07T23:06:37.854Z,-142.07
2022-09-07T23:09:23.294Z,-142.07
2022-09-07T23:12:08.458Z,-142.07
2022-09-07T23:14:53.660Z,-142.07
2022-09-07T23:17:38.979Z,-142.07
2022-09-07T23:20:25.649Z,-142.07
2022-09-07T23:23:11.250Z,-142.07
2022-09-07T23:25:56.428Z,-142.07
2022-09-07T23:28:41.629Z,-142.07
2022-09-07T23:31:28.085Z,-142.07
2022-09-07T23:34:13.205Z,-142.07
2022-09-07T23:36:58.546Z,-142.07
2022-09-07T23:39:44.634Z,-142.07
2022-09-07T23:42:30.110Z,-142.07
2022-09-07T23:45:15.539Z,-142.07
2022-09-07T23:48:00.815Z,-142.07
2022-09-07T23:50:46.658Z,-142.07
2022-09-07T23:53:32.838Z,-142.07
2022-09-07T23:56:18.286Z,-142.07
2022-09-07T23:59:05.595Z,-142.07
